Terminal Aerodrome Forecast
Issued by NWS Omaha/Valley, NE

Home | Current Version | Previous Version | Text Only | Print | Product List | Glossary On
Versions: 1 2 3 4 5 6 7 8 9 10 11 12 13 14 15 16 17 18 19 20 21 22 23 24 25 26 27 28 29 30 31 32 33 34 35 36 37 38 39 40 41 42 43 44
000
FTUS43 KOAX 301345 AAA
TAFOMA
TAF AMD
KOMA 301345Z 3014/3112 32006KT 5SM BR OVC009
      TEMPO 3014/3016 1 1/2SM BR BKN004
     FM301600 32005KT P6SM SCT015
      TEMPO 3016/3018 BKN015
     FM302000 18007KT P6SM SCT250=

USA.gov is the U.S. government's official web portal to all federal, state and local government web resources and services.